createdAt,value
2019-01-25T00:02:39.519Z,26.47
2019-01-25T00:07:44.073Z,24.47
2019-01-25T00:12:48.717Z,26.67
2019-01-25T00:17:53.926Z,27.43
2019-01-25T00:22:58.526Z,27.07
2019-01-25T00:28:03.255Z,27.20
2019-01-25T00:33:08.024Z,27.70
2019-01-25T00:38:13.425Z,27.00
2019-01-25T00:43:17.997Z,25.83
2019-01-25T00:48:22.595Z,24.07
2019-01-25T00:53:27.194Z,24.27
2019-01-25T00:58:31.715Z,24.47
2019-01-25T01:03:36.341Z,24.57
2019-01-25T01:08:40.894Z,23.40
2019-01-25T01:13:45.505Z,23.93
2019-01-25T01:18:50.104Z,26.97
2019-01-25T01:23:54.801Z,24.93
2019-01-25T01:28:59.438Z,24.37
2019-01-25T01:34:04.669Z,26.53
2019-01-25T01:39:09.410Z,26.40
2019-01-25T01:44:13.997Z,26.37
2019-01-25T01:49:18.609Z,26.93
2019-01-25T01:54:23.253Z,25.53
2019-01-25T01:59:27.881Z,25.63
2019-01-25T02:04:32.539Z,26.60
2019-01-25T02:09:37.392Z,27.73
2019-01-25T02:14:42.021Z,27.37
2019-01-25T02:19:46.583Z,23.10
2019-01-25T02:24:51.190Z,26.37
2019-01-25T02:29:55.762Z,24.90
2019-01-25T02:35:00.371Z,24.93
2019-01-25T02:40:05.754Z,28.00
2019-01-25T02:45:11.516Z,25.73
2019-01-25T02:50:17.717Z,26.33
2019-01-25T02:55:22.546Z,27.57
2019-01-25T03:00:27.455Z,26.43
2019-01-25T03:05:32.026Z,26.30
2019-01-25T03:10:36.624Z,26.93
2019-01-25T03:15:41.267Z,24.40
2019-01-25T03:20:45.864Z,27.23
2019-01-25T03:25:50.543Z,27.53
2019-01-25T03:30:55.157Z,26.20
2019-01-25T03:36:01.000Z,26.07
2019-01-25T03:41:05.798Z,29.03
2019-01-25T03:46:10.387Z,29.77
2019-01-25T03:51:15.087Z,30.87
2019-01-25T03:56:19.677Z,30.37
2019-01-25T04:01:24.225Z,29.83
2019-01-25T04:06:28.792Z,30.57
2019-01-25T04:11:33.354Z,32.30
2019-01-25T04:16:38.042Z,33.13
2019-01-25T04:21:42.637Z,32.80
2019-01-25T04:26:47.221Z,30.47
2019-01-25T04:31:51.819Z,29.43
2019-01-25T04:36:56.557Z,30.33
2019-01-25T04:42:01.152Z,30.40
2019-01-25T04:47:05.842Z,29.90
2019-01-25T04:52:14.177Z,29.63
2019-01-25T04:57:18.799Z,48.97
2019-01-25T05:02:23.446Z,48.30
2019-01-25T05:07:28.068Z,31.93
2019-01-25T05:12:32.663Z,28.27
2019-01-25T05:17:37.273Z,27.80
2019-01-25T05:22:41.887Z,27.07
2019-01-25T05:27:46.532Z,26.37
2019-01-25T05:32:51.103Z,29.07
2019-01-25T05:37:57.072Z,26.53
2019-01-25T05:43:01.668Z,27.07
2019-01-25T05:48:06.371Z,27.20
2019-01-25T05:53:10.963Z,25.87
2019-01-25T05:58:15.552Z,26.10
2019-01-25T06:03:20.225Z,26.53
2019-01-25T06:08:31.740Z,26.37
2019-01-25T06:13:36.358Z,24.30
2019-01-25T06:18:40.967Z,22.03
2019-01-25T06:23:45.649Z,24.67
2019-01-25T06:28:53.376Z,22.17
2019-01-25T06:33:58.082Z,22.60
2019-01-25T06:39:04.098Z,21.70
2019-01-25T06:44:08.767Z,22.83
2019-01-25T06:49:13.373Z,19.83
2019-01-25T06:54:18.022Z,19.50
2019-01-25T06:59:25.802Z,19.20
2019-01-25T07:04:30.421Z,19.90
2019-01-25T07:09:35.067Z,19.03
2019-01-25T07:14:39.601Z,32.05
2019-01-25T07:19:44.200Z,18.70
2019-01-25T07:24:48.844Z,19.20
2019-01-25T07:29:53.497Z,16.17
2019-01-25T07:34:58.158Z,17.50
2019-01-25T07:40:03.229Z,16.90
2019-01-25T07:45:08.141Z,32.17
2019-01-25T07:50:12.880Z,30.60
2019-01-25T07:55:17.676Z,20.57
2019-01-25T08:00:22.460Z,35.17
2019-01-25T08:05:27.230Z,32.05
2019-01-25T08:10:33.159Z,19.97
2019-01-25T08:15:37.916Z,20.33
2019-01-25T08:20:42.565Z,19.57
2019-01-25T08:25:47.181Z,18.80
2019-01-25T08:30:51.837Z,19.27
2019-01-25T08:35:56.461Z,38.45
2019-01-25T08:41:02.329Z,39.08
2019-01-25T08:46:06.920Z,22.03
2019-01-25T08:51:11.682Z,23.23
2019-01-25T08:56:16.348Z,23.43
2019-01-25T09:01:20.984Z,24.03
2019-01-25T09:06:25.583Z,26.77
2019-01-25T09:11:30.329Z,25.97
2019-01-25T09:16:35.027Z,26.37
2019-01-25T09:21:39.982Z,26.27
2019-01-25T09:26:44.603Z,25.80
2019-01-25T09:31:49.299Z,28.00
2019-01-25T09:36:53.939Z,26.70
2019-01-25T09:41:58.581Z,27.23
2019-01-25T09:47:03.193Z,26.57
2019-01-25T09:52:07.821Z,25.63
2019-01-25T09:57:15.299Z,25.13
2019-01-25T10:02:19.931Z,23.67
2019-01-25T10:07:24.641Z,24.83
2019-01-25T10:12:29.210Z,25.27
2019-01-25T10:17:33.861Z,23.80
2019-01-25T10:22:38.458Z,26.37
2019-01-25T10:27:43.163Z,22.73
2019-01-25T10:32:47.706Z,23.77
2019-01-25T10:37:52.683Z,24.33
2019-01-25T10:42:57.434Z,24.13
2019-01-25T10:48:02.007Z,21.70
2019-01-25T10:53:07.558Z,23.33
2019-01-25T10:58:12.130Z,26.00
2019-01-25T11:03:16.807Z,25.50
2019-01-25T11:08:21.490Z,25.50
2019-01-25T11:13:26.091Z,25.33
2019-01-25T11:18:30.716Z,26.77
2019-01-25T11:23:35.519Z,24.43
2019-01-25T11:28:40.121Z,22.93
2019-01-25T11:33:44.715Z,24.90
2019-01-25T11:38:49.532Z,24.77
2019-01-25T11:43:54.104Z,24.23
2019-01-25T11:48:58.746Z,25.33
2019-01-25T11:54:03.734Z,25.63
2019-01-25T11:59:08.394Z,25.83
2019-01-25T12:04:13.077Z,25.53
2019-01-25T12:09:17.676Z,25.07
2019-01-25T12:14:22.300Z,23.83
2019-01-25T12:19:26.942Z,26.53
2019-01-25T12:24:31.589Z,23.23
2019-01-25T12:29:36.179Z,23.10
2019-01-25T12:34:40.727Z,22.27
2019-01-25T12:39:45.365Z,22.57
2019-01-25T12:44:49.967Z,16.70
2019-01-25T12:49:54.538Z,14.80
2019-01-25T12:54:59.149Z,11.97
2019-01-25T13:00:04.297Z,10.87
2019-01-25T13:05:11.289Z,10.30
2019-01-25T13:10:16.649Z,9.07
2019-01-25T13:15:21.438Z,8.07
2019-01-25T13:20:27.090Z,8.03
2019-01-25T13:25:31.770Z,8.13
2019-01-25T13:30:36.477Z,7.33
2019-01-25T13:35:41.124Z,7.40
2019-01-25T13:40:45.792Z,7.37
2019-01-25T13:45:50.394Z,8.03
2019-01-25T13:50:55.119Z,6.57
2019-01-25T13:55:59.849Z,6.23
2019-01-25T14:01:04.678Z,6.53
2019-01-25T14:06:09.345Z,5.63
2019-01-25T14:11:13.907Z,6.53
2019-01-25T14:16:18.561Z,6.80
2019-01-25T14:21:23.160Z,6.63
2019-01-25T14:26:28.889Z,6.47
2019-01-25T14:31:33.658Z,6.37
2019-01-25T14:36:38.434Z,5.67
2019-01-25T14:41:43.080Z,5.50
2019-01-25T14:46:47.737Z,5.50
2019-01-25T14:51:52.365Z,5.77
2019-01-25T14:56:56.945Z,5.37
2019-01-25T15:02:01.725Z,4.57
2019-01-25T15:07:06.334Z,5.10
2019-01-25T15:12:10.975Z,5.27
2019-01-25T15:17:15.586Z,3.40
2019-01-25T15:22:20.254Z,3.17
2019-01-25T15:27:24.868Z,3.93
2019-01-25T15:32:29.566Z,5.40
2019-01-25T15:37:34.282Z,4.00
2019-01-25T15:42:38.947Z,4.50
2019-01-25T15:47:43.726Z,4.80
2019-01-25T15:52:49.990Z,3.30
2019-01-25T15:57:54.638Z,3.63
2019-01-25T16:02:59.290Z,3.80
2019-01-25T16:08:04.021Z,4.37
2019-01-25T16:13:08.631Z,4.30
2019-01-25T16:18:13.248Z,3.87
2019-01-25T16:23:17.863Z,3.40
2019-01-25T16:28:22.592Z,3.60
2019-01-25T16:33:27.201Z,3.97
2019-01-25T16:38:31.846Z,3.27
2019-01-25T16:43:36.812Z,3.00
2019-01-25T16:48:41.559Z,4.22
2019-01-25T16:53:46.346Z,4.70
2019-01-25T16:58:50.945Z,4.10
2019-01-25T17:03:55.577Z,3.87
2019-01-25T17:09:00.226Z,3.93
2019-01-25T17:14:05.093Z,3.30
2019-01-25T17:19:09.645Z,4.97
2019-01-25T17:24:14.483Z,5.15
2019-01-25T17:29:19.164Z,5.30
2019-01-25T17:34:23.799Z,5.60
2019-01-25T17:39:28.476Z,4.63
2019-01-25T17:44:33.165Z,5.20
2019-01-25T17:49:39.100Z,4.10
2019-01-25T17:54:43.744Z,4.73
2019-01-25T17:59:48.393Z,4.60
2019-01-25T18:04:55.780Z,5.87
2019-01-25T18:10:00.489Z,4.17
2019-01-25T18:15:06.081Z,5.40
2019-01-25T18:20:12.435Z,5.40
2019-01-25T18:25:20.684Z,4.90
2019-01-25T18:30:41.462Z,12.90
2019-01-25T18:35:46.197Z,7.10
2019-01-25T18:40:50.805Z,4.60
2019-01-25T18:45:55.390Z,5.00
2019-01-25T18:51:00.060Z,6.75
2019-01-25T18:56:05.412Z,6.87
2019-01-25T19:01:10.066Z,5.97
2019-01-25T19:06:14.833Z,5.80
2019-01-25T19:11:19.610Z,5.73
2019-01-25T19:16:24.358Z,5.80
2019-01-25T19:21:29.083Z,6.87
2019-01-25T19:26:33.739Z,6.55
2019-01-25T19:31:38.479Z,6.40
2019-01-25T19:36:43.142Z,8.08
2019-01-25T19:41:47.810Z,6.27
2019-01-25T19:46:52.562Z,8.53
2019-01-25T19:51:58.667Z,6.07
2019-01-25T19:57:03.449Z,7.07
2019-01-25T20:02:08.246Z,9.88
2019-01-25T20:07:12.948Z,7.73
2019-01-25T20:12:17.692Z,7.50
2019-01-25T20:17:22.548Z,8.03
2019-01-25T20:22:27.197Z,8.97
2019-01-25T20:27:31.897Z,8.87
2019-01-25T20:32:36.629Z,10.30
2019-01-25T20:37:41.325Z,12.40
2019-01-25T20:42:46.145Z,12.63
2019-01-25T20:47:50.978Z,11.73
2019-01-25T20:52:55.858Z,12.07
2019-01-25T20:58:01.305Z,11.73
2019-01-25T21:03:07.671Z,12.70
2019-01-25T21:08:12.553Z,12.40
2019-01-25T21:13:17.227Z,12.47
2019-01-25T21:18:21.823Z,13.30
2019-01-25T21:23:26.460Z,12.83
2019-01-25T21:28:31.180Z,12.27
2019-01-25T21:33:36.150Z,11.47
2019-01-25T21:38:40.994Z,10.53
2019-01-25T21:43:46.256Z,10.73
2019-01-25T21:48:51.382Z,11.00
2019-01-25T21:53:56.388Z,9.80
2019-01-25T21:59:01.379Z,11.43
2019-01-25T22:04:06.287Z,9.63
2019-01-25T22:09:11.479Z,9.20
2019-01-25T22:14:16.336Z,9.13
2019-01-25T22:19:21.067Z,8.83
2019-01-25T22:24:25.800Z,9.10
2019-01-25T22:29:30.475Z,8.57
2019-01-25T22:34:35.130Z,7.60
2019-01-25T22:39:39.804Z,8.70
2019-01-25T22:44:44.415Z,6.30
2019-01-25T22:49:49.099Z,7.30
2019-01-25T22:54:53.881Z,7.80
2019-01-25T22:59:58.537Z,9.37
2019-01-25T23:05:51.022Z,9.53
2019-01-25T23:10:55.678Z,9.37
2019-01-25T23:16:06.277Z,11.97
2019-01-25T23:21:24.975Z,13.40
2019-01-25T23:26:41.680Z,12.53
2019-01-25T23:31:58.153Z,14.13
2019-01-25T23:37:14.096Z,14.70
2019-01-25T23:42:29.900Z,14.07
2019-01-25T23:47:46.140Z,15.50
2019-01-25T23:53:01.968Z,16.13
2019-01-25T23:58:18.245Z,15.80
